Rockport, Texas
Current Conditions -  °F | °C
As of 11:53 PM on Wednesday 26 Nov 2014 (Local Time) from KRKP Reporting Station
Clear Clear  
Wind Chill: 59°   Ceiling: Unl
Heat Index: 59°   Visibility: 10mi
Dew Point: 55°   Wind: 5mph
Humidity: 87%   Direction: 200°SSW
Pressure: 30.31"   Gusts: NA
Location:  28.01°N, 97.06°W
Report Text: KRKP 270553Z AUTO 20004KT 10SM CLR 15/13 A3031 RMK AO2 SLP263 T01500128 10167 20150 402220078 51012 $
Loading
Personal Weather Stations






























Interactive Weather Map New forecast layout! Learn more

10-Day Weather Forecast

Advertisements
Track Severe Weather on mobile